createdAt,value
2018-10-06T00:00:16.714Z,13.30
2018-10-06T00:02:45.015Z,13.87
2018-10-06T00:05:13.353Z,13.13
2018-10-06T00:07:41.662Z,14.00
2018-10-06T00:10:10.618Z,15.37
2018-10-06T00:12:38.970Z,12.60
2018-10-06T00:15:07.462Z,11.47
2018-10-06T00:17:35.793Z,13.03
2018-10-06T00:20:04.330Z,13.90
2018-10-06T00:22:32.583Z,13.43
2018-10-06T00:25:00.838Z,11.83
2018-10-06T00:27:29.075Z,15.10
2018-10-06T00:29:57.424Z,13.83
2018-10-06T00:32:26.427Z,13.90
2018-10-06T00:34:55.262Z,11.07
2018-10-06T00:37:23.710Z,15.53
2018-10-06T00:39:52.468Z,15.57
2018-10-06T00:42:21.580Z,11.53
2018-10-06T00:44:49.840Z,14.40
2018-10-06T00:47:18.094Z,11.67
2018-10-06T00:49:46.447Z,13.70
2018-10-06T00:52:14.850Z,11.90
2018-10-06T00:54:43.294Z,10.50
2018-10-06T00:57:11.725Z,11.67
2018-10-06T00:59:40.092Z,10.83
2018-10-06T01:02:08.851Z,14.37
2018-10-06T01:04:38.233Z,13.40
2018-10-06T01:07:06.634Z,11.07
2018-10-06T01:09:34.817Z,11.87
2018-10-06T01:12:03.295Z,12.13
2018-10-06T01:14:31.605Z,12.30
2018-10-06T01:17:00.084Z,13.10
2018-10-06T01:19:31.769Z,18.37
2018-10-06T01:22:00.018Z,14.13
2018-10-06T01:24:28.292Z,12.80
2018-10-06T01:26:56.539Z,14.63
2018-10-06T01:29:24.892Z,13.40
2018-10-06T01:31:53.189Z,11.40
2018-10-06T01:34:21.587Z,12.63
2018-10-06T01:36:49.963Z,11.70
2018-10-06T01:39:18.238Z,13.72
2018-10-06T01:41:46.627Z,12.73
2018-10-06T01:44:15.387Z,12.63
2018-10-06T01:46:43.792Z,12.00
2018-10-06T01:49:12.015Z,14.53
2018-10-06T01:51:40.252Z,11.47
2018-10-06T01:54:08.466Z,13.27
2018-10-06T01:56:36.739Z,18.32
2018-10-06T01:59:05.034Z,14.60
2018-10-06T02:01:33.271Z,15.10
2018-10-06T02:04:01.499Z,14.57
2018-10-06T02:06:29.755Z,12.73
2018-10-06T02:08:58.120Z,14.97
2018-10-06T02:11:26.299Z,11.13
2018-10-06T02:13:54.586Z,12.77
2018-10-06T02:16:22.768Z,12.00
2018-10-06T02:18:51.008Z,12.33
2018-10-06T02:21:19.250Z,10.90
2018-10-06T02:23:48.514Z,12.07
2018-10-06T02:26:16.718Z,11.38
2018-10-06T02:28:44.907Z,12.83
2018-10-06T02:31:13.163Z,12.35
2018-10-06T02:33:41.343Z,13.03
2018-10-06T02:36:09.587Z,11.85
2018-10-06T02:38:38.027Z,11.50
2018-10-06T02:41:06.348Z,12.23
2018-10-06T02:43:34.595Z,11.48
2018-10-06T02:46:03.877Z,12.25
2018-10-06T02:48:32.042Z,11.50
2018-10-06T02:51:00.195Z,12.25
2018-10-06T02:53:28.425Z,12.25
2018-10-06T02:55:56.623Z,15.83
2018-10-06T02:58:24.871Z,17.10
2018-10-06T03:00:53.098Z,14.10
2018-10-06T03:03:21.390Z,13.48
2018-10-06T03:05:49.648Z,18.33
2018-10-06T03:08:18.486Z,17.48
2018-10-06T03:10:46.700Z,14.00
2018-10-06T03:13:14.883Z,13.38
2018-10-06T03:15:43.083Z,16.32
2018-10-06T03:18:11.335Z,11.85
2018-10-06T03:20:39.583Z,13.70
2018-10-06T03:23:07.905Z,12.30
2018-10-06T03:25:36.260Z,12.00
2018-10-06T03:28:04.568Z,13.60
2018-10-06T03:30:33.503Z,12.75
2018-10-06T03:33:02.441Z,13.43
2018-10-06T03:35:30.962Z,14.93
2018-10-06T03:37:59.777Z,15.00
2018-10-06T03:40:27.988Z,14.80
2018-10-06T03:42:56.246Z,11.88
2018-10-06T03:45:24.590Z,11.20
2018-10-06T03:47:52.903Z,14.20
2018-10-06T03:50:21.136Z,13.08
2018-10-06T03:52:49.460Z,14.45
2018-10-06T03:55:17.639Z,15.17
2018-10-06T03:57:46.019Z,13.88
2018-10-06T04:00:14.258Z,15.37
2018-10-06T04:02:42.467Z,14.55
2018-10-06T04:05:10.693Z,15.60
2018-10-06T04:07:38.847Z,14.33
2018-10-06T04:10:07.209Z,15.70
2018-10-06T04:12:35.428Z,14.75
2018-10-06T04:15:03.823Z,14.15
2018-10-06T04:17:32.020Z,15.08
2018-10-06T04:20:00.282Z,16.32
2018-10-06T04:22:28.841Z,14.63
2018-10-06T04:24:57.092Z,15.17
2018-10-06T04:27:25.292Z,15.93
2018-10-06T04:29:53.521Z,17.12
2018-10-06T04:32:21.715Z,16.52
2018-10-06T04:34:49.989Z,14.80
2018-10-06T04:37:18.287Z,19.35
2018-10-06T04:39:46.566Z,15.38
2018-10-06T04:42:14.819Z,14.15
2018-10-06T04:44:43.094Z,14.35
2018-10-06T04:47:11.318Z,15.78
2018-10-06T04:49:39.651Z,14.38
2018-10-06T04:52:07.921Z,12.63
2018-10-06T04:54:36.185Z,14.53
2018-10-06T04:57:04.422Z,14.13
2018-10-06T04:59:32.655Z,14.00
2018-10-06T05:02:00.935Z,15.05
2018-10-06T05:04:29.225Z,12.98
2018-10-06T05:06:58.124Z,16.17
2018-10-06T05:09:26.606Z,12.73
2018-10-06T05:11:54.910Z,13.78
2018-10-06T05:14:23.320Z,12.70
2018-10-06T05:16:51.539Z,12.30
2018-10-06T05:19:19.747Z,14.10
2018-10-06T05:21:47.981Z,14.23
2018-10-06T05:24:16.312Z,14.55
2018-10-06T05:26:44.518Z,15.70
2018-10-06T05:29:13.009Z,20.55
2018-10-06T05:31:41.252Z,15.93
2018-10-06T05:34:09.540Z,21.35
2018-10-06T05:36:38.519Z,18.07
2018-10-06T05:39:09.545Z,16.57
2018-10-06T05:41:37.820Z,20.52
2018-10-06T05:44:06.880Z,23.98
2018-10-06T05:46:35.219Z,22.70
2018-10-06T05:49:03.457Z,21.70
2018-10-06T05:51:31.807Z,24.30
2018-10-06T05:54:00.081Z,22.75
2018-10-06T05:56:29.075Z,17.98
2018-10-06T05:58:57.459Z,27.67
2018-10-06T06:01:26.198Z,28.32
2018-10-06T06:03:54.519Z,28.98
2018-10-06T06:06:22.806Z,28.20
2018-10-06T06:08:51.696Z,25.23
2018-10-06T06:11:21.007Z,29.30
2018-10-06T06:13:49.235Z,30.15
2018-10-06T06:16:17.719Z,26.33
2018-10-06T06:18:46.188Z,28.62
2018-10-06T06:21:14.619Z,25.20
2018-10-06T06:23:42.948Z,30.97
2018-10-06T06:26:11.119Z,26.57
2018-10-06T06:28:39.431Z,28.67
2018-10-06T06:31:07.764Z,33.33
2018-10-06T06:33:35.972Z,27.73
2018-10-06T06:36:04.239Z,26.27
2018-10-06T06:38:33.710Z,24.37
2018-10-06T06:41:01.890Z,24.30
2018-10-06T06:43:30.752Z,26.48
2018-10-06T06:45:59.063Z,21.70
2018-10-06T06:48:27.394Z,27.05
2018-10-06T06:50:55.598Z,23.60
2018-10-06T06:53:23.844Z,20.88
2018-10-06T06:55:52.136Z,20.30
2018-10-06T06:58:21.324Z,19.02
2018-10-06T07:00:49.727Z,22.90
2018-10-06T07:03:18.100Z,18.62
2018-10-06T07:05:46.361Z,23.67
2018-10-06T07:08:14.616Z,23.90
2018-10-06T07:10:42.905Z,19.57
2018-10-06T07:13:11.182Z,21.83
2018-10-06T07:15:39.450Z,25.23
2018-10-06T07:18:07.772Z,19.20
2018-10-06T07:20:36.059Z,20.63
2018-10-06T07:23:04.374Z,20.70
2018-10-06T07:25:32.720Z,26.10
2018-10-06T07:28:01.145Z,21.13
2018-10-06T07:30:29.442Z,20.70
2018-10-06T07:32:58.130Z,21.60
2018-10-06T07:35:26.425Z,22.33
2018-10-06T07:37:54.748Z,22.47
2018-10-06T07:40:23.561Z,22.47
2018-10-06T07:42:51.869Z,19.23
2018-10-06T07:45:20.248Z,18.37
2018-10-06T07:47:48.542Z,18.20
2018-10-06T07:50:16.924Z,21.20
2018-10-06T07:52:45.325Z,19.17
2018-10-06T07:55:13.793Z,18.50
2018-10-06T07:57:42.056Z,20.00
2018-10-06T08:00:10.392Z,18.37
2018-10-06T08:02:38.777Z,18.43
2018-10-06T08:05:07.157Z,18.30
2018-10-06T08:07:35.447Z,16.37
2018-10-06T08:10:03.953Z,16.10
2018-10-06T08:12:32.273Z,15.83
2018-10-06T08:15:01.265Z,16.80
2018-10-06T08:17:29.561Z,17.10
2018-10-06T08:19:57.823Z,17.40
2018-10-06T08:22:26.302Z,19.73
2018-10-06T08:24:54.656Z,18.50
2018-10-06T08:27:24.558Z,20.20
2018-10-06T08:29:53.138Z,20.33
2018-10-06T08:32:21.582Z,20.37
2018-10-06T08:34:49.901Z,17.83
2018-10-06T08:37:18.321Z,21.63
2018-10-06T08:39:46.750Z,20.93
2018-10-06T08:42:15.059Z,23.00
2018-10-06T08:44:43.360Z,25.53
2018-10-06T08:47:12.316Z,24.50
2018-10-06T08:49:40.598Z,22.93
2018-10-06T08:52:09.821Z,22.13
2018-10-06T08:54:38.208Z,25.00
2018-10-06T08:57:06.479Z,27.17
2018-10-06T08:59:34.785Z,23.20
2018-10-06T09:02:03.085Z,21.70
2018-10-06T09:04:31.545Z,21.80
2018-10-06T09:06:59.764Z,19.73
2018-10-06T09:09:28.353Z,22.10
2018-10-06T09:11:56.689Z,19.10
2018-10-06T09:14:25.737Z,19.00
2018-10-06T09:16:54.152Z,18.40
2018-10-06T09:19:22.435Z,20.80
2018-10-06T09:21:50.802Z,20.43
2018-10-06T09:24:20.057Z,17.60
2018-10-06T09:26:48.614Z,16.00
2018-10-06T09:29:16.942Z,16.00
2018-10-06T09:31:45.266Z,16.60
2018-10-06T09:34:13.438Z,16.73
2018-10-06T09:36:41.914Z,14.93
2018-10-06T09:39:10.383Z,16.07
2018-10-06T09:41:38.742Z,14.73
2018-10-06T09:44:07.114Z,14.97
2018-10-06T09:46:35.667Z,16.40
2018-10-06T09:49:04.127Z,13.70
2018-10-06T09:51:32.471Z,12.73
2018-10-06T09:54:00.727Z,14.13
2018-10-06T09:56:29.033Z,14.57
2018-10-06T10:01:45.711Z,11.77
2018-10-06T10:04:16.944Z,11.67
2018-10-06T10:06:45.726Z,12.07
2018-10-06T10:09:15.102Z,11.13
2018-10-06T10:11:43.561Z,10.23
2018-10-06T10:14:12.056Z,10.90
2018-10-06T10:16:40.442Z,11.43
2018-10-06T10:19:09.134Z,13.03
2018-10-06T10:21:37.556Z,9.47
2018-10-06T10:24:05.872Z,9.73
2018-10-06T10:26:34.252Z,9.40
2018-10-06T10:29:02.995Z,9.63
2018-10-06T10:31:31.628Z,15.10
2018-10-06T10:34:00.154Z,8.53
2018-10-06T10:36:28.499Z,9.20
2018-10-06T10:38:56.707Z,8.97
2018-10-06T10:41:24.992Z,8.53
2018-10-06T10:43:53.269Z,9.00
2018-10-06T10:46:21.851Z,8.10
2018-10-06T10:48:50.290Z,7.80
2018-10-06T10:51:20.068Z,6.73
2018-10-06T10:53:48.410Z,6.93
2018-10-06T10:56:16.712Z,8.87
2018-10-06T10:58:45.007Z,8.37
2018-10-06T11:01:13.846Z,6.00
2018-10-06T11:03:42.104Z,6.47
2018-10-06T11:06:10.442Z,5.03
2018-10-06T11:08:38.819Z,5.10
2018-10-06T11:11:07.153Z,8.03
2018-10-06T11:13:35.559Z,4.47
2018-10-06T11:16:04.266Z,4.90
2018-10-06T11:18:32.656Z,4.93
2018-10-06T11:21:01.007Z,6.73
2018-10-06T11:23:30.194Z,5.97
2018-10-06T11:25:58.598Z,6.57
2018-10-06T11:28:27.422Z,7.43
2018-10-06T11:30:55.838Z,5.77
2018-10-06T11:33:24.240Z,7.47
2018-10-06T11:35:52.694Z,6.70
2018-10-06T11:38:21.483Z,7.63
2018-10-06T11:40:49.838Z,6.67
2018-10-06T11:43:18.157Z,6.43
2018-10-06T11:45:46.636Z,6.57
2018-10-06T11:48:14.962Z,7.70
2018-10-06T11:50:43.457Z,5.70
2018-10-06T11:53:11.770Z,6.70
2018-10-06T11:55:40.051Z,6.87
2018-10-06T11:58:08.511Z,6.63
2018-10-06T12:00:36.929Z,7.80
2018-10-06T12:03:05.284Z,7.40
2018-10-06T12:05:33.582Z,6.43
2018-10-06T12:08:01.956Z,6.53
2018-10-06T12:10:30.504Z,6.07
2018-10-06T12:12:58.800Z,9.77
2018-10-06T12:15:28.176Z,6.53
2018-10-06T12:17:56.554Z,5.63
2018-10-06T12:20:24.916Z,7.40
2018-10-06T12:22:53.544Z,6.50
2018-10-06T12:25:21.895Z,7.33
2018-10-06T12:27:53.427Z,6.87
2018-10-06T12:30:22.365Z,6.33
2018-10-06T12:32:51.565Z,7.90
2018-10-06T12:35:20.523Z,6.80
2018-10-06T12:37:48.693Z,6.37
2018-10-06T12:40:18.258Z,7.00
2018-10-06T12:42:47.296Z,6.60
2018-10-06T12:45:15.521Z,6.00
2018-10-06T12:47:43.718Z,8.90
2018-10-06T12:50:12.371Z,5.20
2018-10-06T12:52:41.050Z,7.77
2018-10-06T12:55:09.979Z,7.87
2018-10-06T12:57:59.491Z,6.53
2018-10-06T13:00:44.345Z,7.03
2018-10-06T13:03:13.244Z,10.27
2018-10-06T13:05:41.583Z,7.87
2018-10-06T13:08:10.023Z,5.50
2018-10-06T13:10:40.331Z,5.40
2018-10-06T13:13:08.742Z,5.47
2018-10-06T13:15:37.023Z,6.73
2018-10-06T13:18:05.966Z,5.93
2018-10-06T13:20:34.803Z,10.50
2018-10-06T13:23:03.291Z,6.83
2018-10-06T13:25:32.608Z,8.77
2018-10-06T13:28:02.794Z,7.10
2018-10-06T13:30:31.985Z,7.30
2018-10-06T13:33:00.384Z,6.67
2018-10-06T13:35:28.833Z,7.10
2018-10-06T13:37:57.874Z,6.20
2018-10-06T13:40:26.227Z,7.20
2018-10-06T13:43:25.318Z,6.60
2018-10-06T13:46:02.616Z,7.83
2018-10-06T13:48:31.774Z,7.03
2018-10-06T13:54:23.612Z,5.80
2018-10-06T13:56:52.598Z,5.37
2018-10-06T13:59:21.021Z,4.90
2018-10-06T14:01:49.306Z,5.13
2018-10-06T14:04:17.736Z,6.30
2018-10-06T14:06:46.081Z,5.63
2018-10-06T14:09:14.424Z,4.63
2018-10-06T14:11:43.012Z,5.50
2018-10-06T14:14:11.522Z,6.00
2018-10-06T14:16:40.046Z,5.90
2018-10-06T14:19:08.405Z,5.13
2018-10-06T14:21:36.679Z,6.10
2018-10-06T14:24:04.939Z,4.50
2018-10-06T14:26:34.417Z,4.50
2018-10-06T14:29:02.689Z,4.77
2018-10-06T14:31:31.211Z,4.97
2018-10-06T14:33:59.814Z,5.50
2018-10-06T14:36:28.024Z,4.90
2018-10-06T14:38:56.213Z,5.97
2018-10-06T14:41:25.038Z,5.00
2018-10-06T14:43:53.244Z,6.30
2018-10-06T14:46:21.691Z,6.60
2018-10-06T14:48:49.964Z,4.70
2018-10-06T14:51:18.527Z,5.43
2018-10-06T14:53:46.861Z,5.03
2018-10-06T14:56:15.259Z,7.47
2018-10-06T14:58:43.580Z,5.03
2018-10-06T15:01:12.119Z,7.70
2018-10-06T15:03:40.525Z,5.20
2018-10-06T15:06:08.744Z,12.60
2018-10-06T15:08:37.078Z,4.83
2018-10-06T15:11:05.718Z,5.83
2018-10-06T15:13:34.445Z,5.20
2018-10-06T15:16:03.128Z,6.07
2018-10-06T15:18:33.651Z,5.30
2018-10-06T15:21:02.017Z,5.87
2018-10-06T15:23:32.232Z,5.40
2018-10-06T15:26:00.602Z,4.77
2018-10-06T15:28:28.861Z,6.00
2018-10-06T15:30:57.413Z,5.67
2018-10-06T15:33:25.848Z,5.93
2018-10-06T15:35:54.344Z,5.37
2018-10-06T15:38:23.372Z,5.57
2018-10-06T15:40:51.829Z,7.00
2018-10-06T15:43:20.323Z,7.40
2018-10-06T15:45:48.654Z,6.70
2018-10-06T15:48:17.312Z,5.57
2018-10-06T15:50:47.208Z,6.03
2018-10-06T15:53:15.523Z,6.53
2018-10-06T15:55:43.844Z,6.57
2018-10-06T15:58:12.182Z,8.93
2018-10-06T16:00:40.443Z,5.17
2018-10-06T16:03:08.762Z,4.57
2018-10-06T16:05:37.240Z,6.97
2018-10-06T16:08:05.757Z,9.87
2018-10-06T16:10:34.267Z,5.13
2018-10-06T16:13:02.568Z,5.10
2018-10-06T16:15:30.940Z,8.13
2018-10-06T16:17:59.298Z,6.33
2018-10-06T16:20:27.606Z,6.90
2018-10-06T16:22:55.999Z,10.97
2018-10-06T16:25:24.341Z,10.20
2018-10-06T16:27:52.742Z,9.20
2018-10-06T16:30:21.199Z,9.40
2018-10-06T16:32:50.307Z,7.77
2018-10-06T16:35:18.620Z,8.80
2018-10-06T16:37:46.972Z,7.27
2018-10-06T16:40:15.330Z,5.80
2018-10-06T16:42:43.691Z,6.23
2018-10-06T16:45:11.980Z,6.30
2018-10-06T16:47:40.211Z,7.00
2018-10-06T16:50:08.520Z,10.83
2018-10-06T16:52:37.062Z,6.50
2018-10-06T16:55:05.420Z,7.80
2018-10-06T16:57:33.762Z,14.00
2018-10-06T17:00:02.145Z,8.20
2018-10-06T17:02:30.431Z,5.77
2018-10-06T17:04:58.830Z,8.17
2018-10-06T17:07:27.172Z,9.33
2018-10-06T17:09:56.085Z,8.67
2018-10-06T17:12:24.402Z,8.50
2018-10-06T17:14:52.744Z,14.57
2018-10-06T17:17:21.262Z,10.20
2018-10-06T17:19:49.641Z,9.80
2018-10-06T17:22:18.023Z,7.77
2018-10-06T17:24:46.533Z,9.77
2018-10-06T17:27:14.878Z,9.17
2018-10-06T17:29:43.237Z,8.03
2018-10-06T17:32:11.501Z,12.13
2018-10-06T17:34:39.808Z,11.20
2018-10-06T17:37:08.134Z,7.60
2018-10-06T17:39:37.488Z,8.20
2018-10-06T17:42:06.047Z,8.60
2018-10-06T17:44:34.517Z,8.03
2018-10-06T17:47:02.849Z,9.03
2018-10-06T17:49:31.183Z,8.00
2018-10-06T17:51:59.434Z,6.73
2018-10-06T17:54:27.697Z,6.33
2018-10-06T17:56:55.974Z,12.23
2018-10-06T17:59:24.377Z,8.63
2018-10-06T18:01:52.873Z,10.90
2018-10-06T18:04:21.274Z,11.70
2018-10-06T18:06:49.667Z,12.43
2018-10-06T18:09:18.139Z,17.03
2018-10-06T18:11:46.528Z,18.17
2018-10-06T18:14:14.924Z,32.10
2018-10-06T18:16:43.372Z,35.47
2018-10-06T18:19:11.771Z,33.83
2018-10-06T18:21:40.270Z,28.13
2018-10-06T18:24:08.618Z,25.90
2018-10-06T18:26:37.068Z,29.00
2018-10-06T18:29:05.727Z,30.50
2018-10-06T18:31:34.072Z,22.20
2018-10-06T18:34:02.359Z,19.40
2018-10-06T18:36:30.766Z,21.33
2018-10-06T18:38:59.058Z,14.37
2018-10-06T18:41:27.414Z,19.63
2018-10-06T18:43:55.698Z,23.70
2018-10-06T18:46:24.506Z,20.93
2018-10-06T18:48:52.827Z,26.10
2018-10-06T18:51:21.419Z,28.03
2018-10-06T18:53:49.945Z,22.60
2018-10-06T18:56:18.588Z,24.93
2018-10-06T18:58:47.123Z,30.90
2018-10-06T19:01:15.599Z,28.40
2018-10-06T19:03:44.336Z,27.27
2018-10-06T19:06:12.541Z,28.73
2018-10-06T19:08:41.077Z,29.13
2018-10-06T19:11:09.551Z,29.27
2018-10-06T19:13:38.088Z,28.80
2018-10-06T19:16:06.634Z,85.13
2018-10-06T19:18:35.116Z,32.20
2018-10-06T19:21:03.552Z,27.33
2018-10-06T19:23:32.437Z,35.00
2018-10-06T19:26:01.005Z,25.50
2018-10-06T19:28:29.409Z,30.03
2018-10-06T19:30:57.837Z,32.33
2018-10-06T19:33:26.401Z,33.73
2018-10-06T19:35:54.933Z,29.10
2018-10-06T19:38:23.339Z,53.10
2018-10-06T19:40:51.919Z,27.83
2018-10-06T19:43:20.279Z,46.90
2018-10-06T19:45:48.902Z,28.03
2018-10-06T19:48:17.396Z,25.30
2018-10-06T19:50:45.933Z,35.20
2018-10-06T19:53:14.312Z,29.03
2018-10-06T19:55:42.767Z,23.90
2018-10-06T19:58:11.207Z,35.37
2018-10-06T20:00:39.512Z,29.17
2018-10-06T20:03:07.892Z,30.97
2018-10-06T20:05:36.260Z,25.73
2018-10-06T20:08:05.353Z,28.37
2018-10-06T20:10:33.750Z,27.70
2018-10-06T20:13:02.163Z,25.20
2018-10-06T20:15:30.496Z,27.67
2018-10-06T20:17:58.950Z,25.70
2018-10-06T20:20:27.245Z,30.97
2018-10-06T20:22:55.524Z,27.90
2018-10-06T20:25:23.966Z,27.40
2018-10-06T20:27:52.280Z,24.83
2018-10-06T20:30:22.157Z,26.03
2018-10-06T20:32:51.787Z,24.57
2018-10-06T20:35:20.039Z,27.37
2018-10-06T20:37:48.602Z,28.53
2018-10-06T20:40:17.092Z,26.67
2018-10-06T20:42:45.722Z,24.00
2018-10-06T20:45:14.165Z,21.20
2018-10-06T20:47:42.607Z,24.33
2018-10-06T20:50:11.068Z,24.90
2018-10-06T20:52:39.461Z,27.90
2018-10-06T20:55:08.145Z,28.50
2018-10-06T20:57:37.259Z,23.73
2018-10-06T21:00:06.884Z,22.77
2018-10-06T21:02:36.645Z,22.73
2018-10-06T21:05:06.186Z,28.47
2018-10-06T21:07:34.727Z,23.70
2018-10-06T21:10:03.338Z,22.90
2018-10-06T21:12:33.532Z,21.93
2018-10-06T21:15:01.926Z,22.30
2018-10-06T21:20:29.796Z,20.10
2018-10-06T21:22:58.304Z,20.50
2018-10-06T21:25:26.798Z,22.60
2018-10-06T21:27:56.433Z,23.87
2018-10-06T21:30:26.597Z,23.20
2018-10-06T21:32:56.073Z,22.50
2018-10-06T21:35:24.478Z,22.10
2018-10-06T21:37:53.012Z,18.83
2018-10-06T21:40:21.935Z,20.37
2018-10-06T21:42:51.006Z,22.57
2018-10-06T21:45:19.677Z,20.90
2018-10-06T21:47:47.942Z,20.80
2018-10-06T21:50:16.210Z,21.27
2018-10-06T21:52:46.372Z,20.10
2018-10-06T21:55:15.534Z,21.70
2018-10-06T21:57:43.934Z,19.43
2018-10-06T22:00:14.093Z,21.47
2018-10-06T22:02:43.216Z,20.27
2018-10-06T22:05:11.859Z,19.30
2018-10-06T22:07:41.756Z,23.33
2018-10-06T22:10:10.501Z,21.13
2018-10-06T22:12:40.054Z,18.23
2018-10-06T22:17:51.383Z,19.53
2018-10-06T22:20:21.383Z,20.17
2018-10-06T22:22:49.950Z,20.00
2018-10-06T22:25:18.266Z,21.73
2018-10-06T22:27:46.746Z,18.93
2018-10-06T22:30:15.126Z,20.47
2018-10-06T22:32:43.461Z,18.97
2018-10-06T22:35:11.899Z,21.93
2018-10-06T22:37:40.239Z,20.07
2018-10-06T22:40:08.858Z,18.83
2018-10-06T22:42:37.893Z,20.90
2018-10-06T22:45:06.739Z,19.70
2018-10-06T22:47:36.159Z,20.17
2018-10-06T22:50:05.228Z,18.30
2018-10-06T22:52:34.088Z,18.07
2018-10-06T22:55:02.704Z,21.10
2018-10-06T22:57:30.903Z,20.23
2018-10-06T22:59:59.339Z,18.67
2018-10-06T23:02:27.850Z,29.57
2018-10-06T23:04:56.151Z,21.70
2018-10-06T23:07:24.420Z,21.40
2018-10-06T23:09:52.605Z,19.97
2018-10-06T23:12:20.772Z,20.30
2018-10-06T23:14:48.979Z,20.27
2018-10-06T23:17:17.082Z,24.00
2018-10-06T23:19:45.496Z,20.97
2018-10-06T23:22:13.636Z,19.63
2018-10-06T23:24:41.861Z,19.00
2018-10-06T23:27:10.218Z,19.07
2018-10-06T23:29:38.447Z,19.63
2018-10-06T23:32:06.815Z,19.90
2018-10-06T23:34:35.035Z,21.07
2018-10-06T23:37:03.216Z,20.97
2018-10-06T23:39:31.744Z,26.40
2018-10-06T23:41:59.966Z,23.17
2018-10-06T23:44:28.143Z,23.23
2018-10-06T23:46:57.281Z,21.97
2018-10-06T23:49:25.535Z,22.73
2018-10-06T23:51:53.650Z,22.53
2018-10-06T23:54:21.909Z,24.47
2018-10-06T23:56:50.005Z,23.93
2018-10-06T23:59:18.254Z,24.63
